sensor_id;sensor_type;location;lat;lon;timestamp;P1;durP1;ratioP1;P2;durP2;ratioP2
78854;SDS011;68206;59.956;30.234;2023-10-09T00:00:13;2.28;;;1.20;;
78854;SDS011;68206;59.956;30.234;2023-10-09T00:03:02;1.40;;;1.30;;
78854;SDS011;68206;59.956;30.234;2023-10-09T00:05:35;1.65;;;1.20;;
78854;SDS011;68206;59.956;30.234;2023-10-09T00:08:13;1.65;;;0.90;;
78854;SDS011;68206;59.956;30.234;2023-10-09T00:10:48;2.13;;;1.30;;
78854;SDS011;68206;59.956;30.234;2023-10-09T00:13:20;1.30;;;1.00;;
78854;SDS011;68206;59.956;30.234;2023-10-09T00:15:55;1.83;;;1.30;;
78854;SDS011;68206;59.956;30.234;2023-10-09T00:18:35;1.88;;;1.05;;
78854;SDS011;68206;59.956;30.234;2023-10-09T00:21:06;1.73;;;1.30;;
78854;SDS011;68206;59.956;30.234;2023-10-09T00:23:39;1.85;;;1.30;;
78854;SDS011;68206;59.956;30.234;2023-10-09T00:26:08;4.03;;;1.50;;
78854;SDS011;68206;59.956;30.234;2023-10-09T00:28:47;1.52;;;1.10;;
78854;SDS011;68206;59.956;30.234;2023-10-09T00:31:18;2.13;;;1.38;;
78854;SDS011;68206;59.956;30.234;2023-10-09T00:33:57;1.20;;;1.10;;
78854;SDS011;68206;59.956;30.234;2023-10-09T00:36:36;1.70;;;1.40;;
78854;SDS011;68206;59.956;30.234;2023-10-09T00:39:17;1.70;;;1.30;;
78854;SDS011;68206;59.956;30.234;2023-10-09T00:42:07;3.10;;;1.38;;
78854;SDS011;68206;59.956;30.234;2023-10-09T00:44:39;1.70;;;1.42;;
78854;SDS011;68206;59.956;30.234;2023-10-09T00:47:09;1.88;;;1.00;;
78854;SDS011;68206;59.956;30.234;2023-10-09T00:49:50;1.48;;;1.10;;
78854;SDS011;68206;59.956;30.234;2023-10-09T00:52:29;2.00;;;1.30;;
78854;SDS011;68206;59.956;30.234;2023-10-09T00:55:01;1.95;;;1.38;;
78854;SDS011;68206;59.956;30.234;2023-10-09T00:57:41;2.15;;;1.55;;
78854;SDS011;68206;59.956;30.234;2023-10-09T01:00:17;2.47;;;1.15;;
78854;SDS011;68206;59.956;30.234;2023-10-09T01:03:01;1.73;;;1.27;;
78854;SDS011;68206;59.956;30.234;2023-10-09T01:05:46;2.25;;;1.27;;
78854;SDS011;68206;59.956;30.234;2023-10-09T01:08:27;1.38;;;1.13;;
78854;SDS011;68206;59.956;30.234;2023-10-09T01:10:57;1.52;;;1.15;;
78854;SDS011;68206;59.956;30.234;2023-10-09T01:13:38;2.40;;;1.98;;
78854;SDS011;68206;59.956;30.234;2023-10-09T01:16:20;2.63;;;1.45;;
78854;SDS011;68206;59.956;30.234;2023-10-09T01:18:50;1.80;;;1.17;;
78854;SDS011;68206;59.956;30.234;2023-10-09T01:21:23;1.75;;;1.30;;
78854;SDS011;68206;59.956;30.234;2023-10-09T01:23:55;1.17;;;1.08;;
78854;SDS011;68206;59.956;30.234;2023-10-09T01:26:31;1.98;;;1.23;;
78854;SDS011;68206;59.956;30.234;2023-10-09T01:29:06;1.98;;;1.17;;
78854;SDS011;68206;59.956;30.234;2023-10-09T01:31:37;1.55;;;1.30;;
78854;SDS011;68206;59.956;30.234;2023-10-09T01:34:11;2.22;;;1.42;;
78854;SDS011;68206;59.956;30.234;2023-10-09T01:36:42;1.92;;;1.45;;
78854;SDS011;68206;59.956;30.234;2023-10-09T01:39:17;2.17;;;1.30;;
78854;SDS011;68206;59.956;30.234;2023-10-09T01:44:28;1.33;;;1.10;;
78854;SDS011;68206;59.956;30.234;2023-10-09T01:47:01;2.85;;;1.30;;
78854;SDS011;68206;59.956;30.234;2023-10-09T01:49:34;1.95;;;1.13;;
78854;SDS011;68206;59.956;30.234;2023-10-09T01:52:04;3.08;;;1.17;;
78854;SDS011;68206;59.956;30.234;2023-10-09T01:54:37;3.03;;;1.50;;
78854;SDS011;68206;59.956;30.234;2023-10-09T01:57:07;1.98;;;1.23;;
78854;SDS011;68206;59.956;30.234;2023-10-09T01:59:41;1.30;;;1.20;;
78854;SDS011;68206;59.956;30.234;2023-10-09T02:02:17;1.98;;;1.30;;
78854;SDS011;68206;59.956;30.234;2023-10-09T02:05:02;1.60;;;1.30;;
78854;SDS011;68206;59.956;30.234;2023-10-09T02:07:37;1.50;;;1.30;;
78854;SDS011;68206;59.956;30.234;2023-10-09T02:10:13;1.20;;;0.90;;
78854;SDS011;68206;59.956;30.234;2023-10-09T02:12:53;1.70;;;1.20;;
78854;SDS011;68206;59.956;30.234;2023-10-09T02:15:28;1.67;;;1.27;;
78854;SDS011;68206;59.956;30.234;2023-10-09T02:18:19;1.88;;;1.40;;
78854;SDS011;68206;59.956;30.234;2023-10-09T02:21:05;1.45;;;1.35;;
78854;SDS011;68206;59.956;30.234;2023-10-09T02:23:41;3.00;;;1.50;;
78854;SDS011;68206;59.956;30.234;2023-10-09T02:26:19;1.48;;;1.00;;
78854;SDS011;68206;59.956;30.234;2023-10-09T02:28:53;1.80;;;1.30;;
78854;SDS011;68206;59.956;30.234;2023-10-09T02:31:27;1.75;;;1.30;;
78854;SDS011;68206;59.956;30.234;2023-10-09T02:34:03;1.55;;;1.20;;
78854;SDS011;68206;59.956;30.234;2023-10-09T02:36:33;1.95;;;1.38;;
78854;SDS011;68206;59.956;30.234;2023-10-09T02:39:05;2.05;;;1.27;;
78854;SDS011;68206;59.956;30.234;2023-10-09T02:41:50;1.63;;;1.30;;
78854;SDS011;68206;59.956;30.234;2023-10-09T02:44:20;1.35;;;1.10;;
78854;SDS011;68206;59.956;30.234;2023-10-09T02:46:53;1.90;;;1.40;;
78854;SDS011;68206;59.956;30.234;2023-10-09T02:49:24;2.47;;;1.80;;
78854;SDS011;68206;59.956;30.234;2023-10-09T02:51:54;1.80;;;1.48;;
78854;SDS011;68206;59.956;30.234;2023-10-09T02:54:22;2.25;;;1.50;;
78854;SDS011;68206;59.956;30.234;2023-10-09T02:57:04;2.92;;;1.45;;
78854;SDS011;68206;59.956;30.234;2023-10-09T02:59:35;1.45;;;1.15;;
78854;SDS011;68206;59.956;30.234;2023-10-09T03:02:08;1.65;;;1.38;;
78854;SDS011;68206;59.956;30.234;2023-10-09T03:04:38;2.28;;;1.40;;
78854;SDS011;68206;59.956;30.234;2023-10-09T03:07:08;2.22;;;1.55;;
78854;SDS011;68206;59.956;30.234;2023-10-09T03:09:37;2.70;;;1.27;;
78854;SDS011;68206;59.956;30.234;2023-10-09T03:12:09;1.42;;;1.20;;
78854;SDS011;68206;59.956;30.234;2023-10-09T03:14:39;1.73;;;1.20;;
78854;SDS011;68206;59.956;30.234;2023-10-09T03:17:08;1.70;;;1.30;;
78854;SDS011;68206;59.956;30.234;2023-10-09T03:19:39;2.95;;;1.42;;
78854;SDS011;68206;59.956;30.234;2023-10-09T03:22:10;2.10;;;1.42;;
78854;SDS011;68206;59.956;30.234;2023-10-09T03:24:39;1.60;;;1.10;;
78854;SDS011;68206;59.956;30.234;2023-10-09T03:27:17;2.20;;;1.48;;
78854;SDS011;68206;59.956;30.234;2023-10-09T03:29:46;2.97;;;1.80;;
78854;SDS011;68206;59.956;30.234;2023-10-09T03:32:21;2.47;;;1.30;;
78854;SDS011;68206;59.956;30.234;2023-10-09T03:34:50;2.08;;;1.40;;
78854;SDS011;68206;59.956;30.234;2023-10-09T03:37:19;1.30;;;1.20;;
78854;SDS011;68206;59.956;30.234;2023-10-09T03:40:01;2.03;;;1.35;;
78854;SDS011;68206;59.956;30.234;2023-10-09T03:42:32;3.83;;;1.45;;
78854;SDS011;68206;59.956;30.234;2023-10-09T03:45:04;1.75;;;1.17;;
78854;SDS011;68206;59.956;30.234;2023-10-09T03:47:40;1.75;;;1.40;;
78854;SDS011;68206;59.956;30.234;2023-10-09T03:50:10;1.58;;;1.30;;
78854;SDS011;68206;59.956;30.234;2023-10-09T03:52:50;1.30;;;1.10;;
78854;SDS011;68206;59.956;30.234;2023-10-09T03:55:22;1.90;;;1.35;;
78854;SDS011;68206;59.956;30.234;2023-10-09T03:57:56;2.10;;;1.30;;
78854;SDS011;68206;59.956;30.234;2023-10-09T04:02:57;1.85;;;1.40;;
78854;SDS011;68206;59.956;30.234;2023-10-09T04:05:26;2.25;;;1.52;;
78854;SDS011;68206;59.956;30.234;2023-10-09T04:07:55;2.28;;;1.60;;
78854;SDS011;68206;59.956;30.234;2023-10-09T04:10:25;1.67;;;1.30;;
78854;SDS011;68206;59.956;30.234;2023-10-09T04:13:24;2.63;;;1.80;;
78854;SDS011;68206;59.956;30.234;2023-10-09T04:16:01;2.67;;;1.65;;
78854;SDS011;68206;59.956;30.234;2023-10-09T04:18:36;2.88;;;1.80;;
78854;SDS011;68206;59.956;30.234;2023-10-09T04:21:07;2.33;;;1.50;;
78854;SDS011;68206;59.956;30.234;2023-10-09T04:26:34;1.80;;;1.40;;
78854;SDS011;68206;59.956;30.234;2023-10-09T04:29:05;3.03;;;1.60;;
78854;SDS011;68206;59.956;30.234;2023-10-09T04:31:37;3.55;;;1.67;;
78854;SDS011;68206;59.956;30.234;2023-10-09T04:34:06;1.90;;;1.25;;
78854;SDS011;68206;59.956;30.234;2023-10-09T04:36:49;2.17;;;1.50;;
78854;SDS011;68206;59.956;30.234;2023-10-09T04:39:23;3.85;;;1.50;;
78854;SDS011;68206;59.956;30.234;2023-10-09T04:42:13;2.17;;;1.50;;
78854;SDS011;68206;59.956;30.234;2023-10-09T04:45:05;1.90;;;1.40;;
78854;SDS011;68206;59.956;30.234;2023-10-09T04:48:06;2.13;;;1.60;;
78854;SDS011;68206;59.956;30.234;2023-10-09T04:50:36;2.42;;;1.67;;
78854;SDS011;68206;59.956;30.234;2023-10-09T04:53:12;2.25;;;1.73;;
78854;SDS011;68206;59.956;30.234;2023-10-09T04:55:58;5.50;;;1.90;;
78854;SDS011;68206;59.956;30.234;2023-10-09T04:58:31;3.10;;;1.48;;
78854;SDS011;68206;59.956;30.234;2023-10-09T05:01:07;2.60;;;1.55;;
78854;SDS011;68206;59.956;30.234;2023-10-09T05:03:42;1.30;;;1.13;;
78854;SDS011;68206;59.956;30.234;2023-10-09T05:06:10;4.03;;;1.90;;
78854;SDS011;68206;59.956;30.234;2023-10-09T05:08:59;4.53;;;1.40;;
78854;SDS011;68206;59.956;30.234;2023-10-09T05:11:36;2.35;;;1.50;;
78854;SDS011;68206;59.956;30.234;2023-10-09T05:14:36;2.35;;;1.60;;
78854;SDS011;68206;59.956;30.234;2023-10-09T05:17:14;3.38;;;1.48;;
78854;SDS011;68206;59.956;30.234;2023-10-09T05:19:44;2.88;;;1.50;;
78854;SDS011;68206;59.956;30.234;2023-10-09T05:22:45;4.47;;;2.03;;
78854;SDS011;68206;59.956;30.234;2023-10-09T05:25:24;2.55;;;1.40;;
78854;SDS011;68206;59.956;30.234;2023-10-09T05:28:22;1.90;;;1.50;;
78854;SDS011;68206;59.956;30.234;2023-10-09T05:30:58;2.78;;;1.63;;
78854;SDS011;68206;59.956;30.234;2023-10-09T05:33:37;1.77;;;1.45;;
78854;SDS011;68206;59.956;30.234;2023-10-09T05:36:06;3.63;;;1.55;;
78854;SDS011;68206;59.956;30.234;2023-10-09T05:38:59;3.78;;;1.98;;
78854;SDS011;68206;59.956;30.234;2023-10-09T05:41:44;2.67;;;1.63;;
78854;SDS011;68206;59.956;30.234;2023-10-09T05:44:19;2.28;;;1.35;;
78854;SDS011;68206;59.956;30.234;2023-10-09T05:47:05;2.08;;;1.27;;
78854;SDS011;68206;59.956;30.234;2023-10-09T05:49:53;2.22;;;1.45;;
78854;SDS011;68206;59.956;30.234;2023-10-09T05:52:49;3.60;;;1.70;;
78854;SDS011;68206;59.956;30.234;2023-10-09T05:55:43;2.10;;;1.48;;
78854;SDS011;68206;59.956;30.234;2023-10-09T06:01:15;3.03;;;1.63;;
78854;SDS011;68206;59.956;30.234;2023-10-09T06:04:01;3.25;;;1.67;;
78854;SDS011;68206;59.956;30.234;2023-10-09T06:06:44;2.83;;;1.98;;
78854;SDS011;68206;59.956;30.234;2023-10-09T06:09:13;2.80;;;1.70;;
78854;SDS011;68206;59.956;30.234;2023-10-09T06:12:17;2.15;;;1.35;;
78854;SDS011;68206;59.956;30.234;2023-10-09T06:15:02;2.60;;;1.65;;
78854;SDS011;68206;59.956;30.234;2023-10-09T06:17:58;1.80;;;1.50;;
78854;SDS011;68206;59.956;30.234;2023-10-09T06:20:47;2.38;;;1.52;;
78854;SDS011;68206;59.956;30.234;2023-10-09T06:23:33;2.10;;;1.48;;
78854;SDS011;68206;59.956;30.234;2023-10-09T06:26:15;3.08;;;1.65;;
78854;SDS011;68206;59.956;30.234;2023-10-09T06:28:53;2.53;;;1.50;;
78854;SDS011;68206;59.956;30.234;2023-10-09T06:31:36;3.63;;;2.10;;
78854;SDS011;68206;59.956;30.234;2023-10-09T06:34:26;3.17;;;1.90;;
78854;SDS011;68206;59.956;30.234;2023-10-09T06:36:59;2.97;;;1.75;;
78854;SDS011;68206;59.956;30.234;2023-10-09T06:39:35;2.65;;;1.50;;
78854;SDS011;68206;59.956;30.234;2023-10-09T06:42:24;2.28;;;1.65;;
78854;SDS011;68206;59.956;30.234;2023-10-09T06:45:14;2.33;;;1.38;;
78854;SDS011;68206;59.956;30.234;2023-10-09T06:47:46;2.40;;;1.60;;
78854;SDS011;68206;59.956;30.234;2023-10-09T06:53:14;1.80;;;1.40;;
78854;SDS011;68206;59.956;30.234;2023-10-09T06:55:54;2.65;;;1.30;;
78854;SDS011;68206;59.956;30.234;2023-10-09T06:58:32;5.40;;;1.55;;
78854;SDS011;68206;59.956;30.234;2023-10-09T07:01:09;3.53;;;1.60;;
78854;SDS011;68206;59.956;30.234;2023-10-09T07:03:55;1.80;;;1.50;;
78854;SDS011;68206;59.956;30.234;2023-10-09T07:06:37;2.35;;;1.65;;
78854;SDS011;68206;59.956;30.234;2023-10-09T07:09:18;2.10;;;1.45;;
78854;SDS011;68206;59.956;30.234;2023-10-09T07:11:49;2.20;;;1.50;;
78854;SDS011;68206;59.956;30.234;2023-10-09T07:14:26;3.08;;;1.70;;
78854;SDS011;68206;59.956;30.234;2023-10-09T07:17:15;5.82;;;1.73;;
78854;SDS011;68206;59.956;30.234;2023-10-09T07:20:07;1.98;;;1.33;;
78854;SDS011;68206;59.956;30.234;2023-10-09T07:22:40;2.67;;;1.67;;
78854;SDS011;68206;59.956;30.234;2023-10-09T07:25:23;2.08;;;1.40;;
78854;SDS011;68206;59.956;30.234;2023-10-09T07:28:10;2.15;;;1.40;;
78854;SDS011;68206;59.956;30.234;2023-10-09T07:31:04;2.88;;;1.50;;
78854;SDS011;68206;59.956;30.234;2023-10-09T07:33:37;5.78;;;1.50;;
78854;SDS011;68206;59.956;30.234;2023-10-09T07:36:25;7.50;;;2.05;;
78854;SDS011;68206;59.956;30.234;2023-10-09T07:39:05;2.67;;;1.50;;
78854;SDS011;68206;59.956;30.234;2023-10-09T07:41:44;2.38;;;1.50;;
78854;SDS011;68206;59.956;30.234;2023-10-09T07:44:25;2.05;;;1.50;;
78854;SDS011;68206;59.956;30.234;2023-10-09T07:47:04;3.40;;;1.65;;
78854;SDS011;68206;59.956;30.234;2023-10-09T07:49:47;1.67;;;1.35;;
78854;SDS011;68206;59.956;30.234;2023-10-09T07:54:56;1.58;;;1.20;;
78854;SDS011;68206;59.956;30.234;2023-10-09T07:57:33;2.17;;;1.63;;
78854;SDS011;68206;59.956;30.234;2023-10-09T08:00:11;4.53;;;1.88;;
78854;SDS011;68206;59.956;30.234;2023-10-09T08:03:01;5.93;;;2.00;;
78854;SDS011;68206;59.956;30.234;2023-10-09T08:05:36;5.80;;;2.13;;
78854;SDS011;68206;59.956;30.234;2023-10-09T08:08:11;5.07;;;1.80;;
78854;SDS011;68206;59.956;30.234;2023-10-09T08:11:09;7.53;;;2.40;;
78854;SDS011;68206;59.956;30.234;2023-10-09T08:13:55;5.45;;;3.13;;
78854;SDS011;68206;59.956;30.234;2023-10-09T08:16:30;3.28;;;1.50;;
78854;SDS011;68206;59.956;30.234;2023-10-09T08:19:03;2.17;;;1.42;;
78854;SDS011;68206;59.956;30.234;2023-10-09T08:21:47;2.60;;;1.73;;
78854;SDS011;68206;59.956;30.234;2023-10-09T08:24:37;2.13;;;1.50;;
78854;SDS011;68206;59.956;30.234;2023-10-09T08:27:09;2.28;;;1.50;;
78854;SDS011;68206;59.956;30.234;2023-10-09T08:30:14;1.92;;;1.48;;
78854;SDS011;68206;59.956;30.234;2023-10-09T08:32:57;2.15;;;1.50;;
78854;SDS011;68206;59.956;30.234;2023-10-09T08:35:38;1.92;;;1.50;;
78854;SDS011;68206;59.956;30.234;2023-10-09T08:38:15;6.32;;;1.73;;
78854;SDS011;68206;59.956;30.234;2023-10-09T08:40:51;2.63;;;1.92;;
78854;SDS011;68206;59.956;30.234;2023-10-09T08:43:26;2.28;;;1.60;;
78854;SDS011;68206;59.956;30.234;2023-10-09T08:45:58;2.42;;;1.73;;
78854;SDS011;68206;59.956;30.234;2023-10-09T08:48:31;3.45;;;1.67;;
78854;SDS011;68206;59.956;30.234;2023-10-09T08:51:04;4.65;;;1.67;;
78854;SDS011;68206;59.956;30.234;2023-10-09T08:53:33;2.33;;;1.50;;
78854;SDS011;68206;59.956;30.234;2023-10-09T08:56:01;2.38;;;1.60;;
78854;SDS011;68206;59.956;30.234;2023-10-09T08:58:31;3.33;;;1.67;;
78854;SDS011;68206;59.956;30.234;2023-10-09T09:01:04;2.42;;;1.65;;
78854;SDS011;68206;59.956;30.234;2023-10-09T09:03:40;2.60;;;1.50;;
78854;SDS011;68206;59.956;30.234;2023-10-09T09:06:12;8.88;;;1.73;;
78854;SDS011;68206;59.956;30.234;2023-10-09T09:08:42;2.30;;;1.48;;
78854;SDS011;68206;59.956;30.234;2023-10-09T09:11:13;2.03;;;1.60;;
78854;SDS011;68206;59.956;30.234;2023-10-09T09:13:45;2.47;;;1.25;;
78854;SDS011;68206;59.956;30.234;2023-10-09T09:16:17;2.42;;;1.50;;
78854;SDS011;68206;59.956;30.234;2023-10-09T09:18:52;2.40;;;1.73;;
78854;SDS011;68206;59.956;30.234;2023-10-09T09:21:28;3.38;;;1.73;;
78854;SDS011;68206;59.956;30.234;2023-10-09T09:23:59;5.65;;;2.00;;
78854;SDS011;68206;59.956;30.234;2023-10-09T09:26:33;2.53;;;1.65;;
78854;SDS011;68206;59.956;30.234;2023-10-09T09:29:05;3.00;;;1.77;;
78854;SDS011;68206;59.956;30.234;2023-10-09T09:31:35;2.60;;;1.80;;
78854;SDS011;68206;59.956;30.234;2023-10-09T09:34:07;2.55;;;1.60;;
78854;SDS011;68206;59.956;30.234;2023-10-09T09:36:49;2.05;;;1.50;;
78854;SDS011;68206;59.956;30.234;2023-10-09T09:39:21;2.88;;;1.92;;
78854;SDS011;68206;59.956;30.234;2023-10-09T09:42:11;2.03;;;1.55;;
78854;SDS011;68206;59.956;30.234;2023-10-09T09:44:41;3.92;;;2.13;;
78854;SDS011;68206;59.956;30.234;2023-10-09T09:47:13;5.47;;;1.83;;
78854;SDS011;68206;59.956;30.234;2023-10-09T09:49:52;3.13;;;1.60;;
78854;SDS011;68206;59.956;30.234;2023-10-09T09:52:28;2.60;;;1.55;;
78854;SDS011;68206;59.956;30.234;2023-10-09T09:55:07;3.15;;;1.58;;
78854;SDS011;68206;59.956;30.234;2023-10-09T09:57:42;3.50;;;1.67;;
78854;SDS011;68206;59.956;30.234;2023-10-09T10:00:19;4.47;;;2.30;;
78854;SDS011;68206;59.956;30.234;2023-10-09T10:03:00;2.83;;;1.85;;
78854;SDS011;68206;59.956;30.234;2023-10-09T10:05:35;2.83;;;1.80;;
78854;SDS011;68206;59.956;30.234;2023-10-09T10:08:07;1.80;;;1.50;;
78854;SDS011;68206;59.956;30.234;2023-10-09T10:10:40;3.13;;;1.80;;
78854;SDS011;68206;59.956;30.234;2023-10-09T10:16:26;2.20;;;1.60;;
78854;SDS011;68206;59.956;30.234;2023-10-09T10:19:02;5.18;;;2.42;;
78854;SDS011;68206;59.956;30.234;2023-10-09T10:21:51;3.10;;;2.08;;
78854;SDS011;68206;59.956;30.234;2023-10-09T10:27:21;4.00;;;2.00;;
78854;SDS011;68206;59.956;30.234;2023-10-09T10:33:03;4.25;;;2.17;;
78854;SDS011;68206;59.956;30.234;2023-10-09T10:35:43;2.83;;;1.83;;
78854;SDS011;68206;59.956;30.234;2023-10-09T10:38:30;2.60;;;1.70;;
78854;SDS011;68206;59.956;30.234;2023-10-09T10:41:10;4.45;;;2.05;;
78854;SDS011;68206;59.956;30.234;2023-10-09T10:43:45;2.45;;;1.80;;
78854;SDS011;68206;59.956;30.234;2023-10-09T10:46:26;3.35;;;1.90;;
78854;SDS011;68206;59.956;30.234;2023-10-09T10:49:09;4.30;;;2.10;;
78854;SDS011;68206;59.956;30.234;2023-10-09T10:51:43;2.50;;;2.00;;
78854;SDS011;68206;59.956;30.234;2023-10-09T10:54:24;2.42;;;1.80;;
78854;SDS011;68206;59.956;30.234;2023-10-09T10:57:13;2.97;;;1.90;;
78854;SDS011;68206;59.956;30.234;2023-10-09T10:59:46;2.47;;;1.58;;
78854;SDS011;68206;59.956;30.234;2023-10-09T11:02:16;4.90;;;2.10;;
78854;SDS011;68206;59.956;30.234;2023-10-09T11:04:55;2.50;;;1.65;;
78854;SDS011;68206;59.956;30.234;2023-10-09T11:07:26;2.15;;;1.60;;
78854;SDS011;68206;59.956;30.234;2023-10-09T11:09:56;4.05;;;2.10;;
78854;SDS011;68206;59.956;30.234;2023-10-09T11:12:42;2.50;;;2.20;;
78854;SDS011;68206;59.956;30.234;2023-10-09T11:15:33;7.22;;;2.00;;
78854;SDS011;68206;59.956;30.234;2023-10-09T11:18:11;4.10;;;1.90;;
78854;SDS011;68206;59.956;30.234;2023-10-09T11:20:48;4.00;;;2.05;;
78854;SDS011;68206;59.956;30.234;2023-10-09T11:23:41;2.40;;;1.63;;
78854;SDS011;68206;59.956;30.234;2023-10-09T11:26:21;7.35;;;1.90;;
78854;SDS011;68206;59.956;30.234;2023-10-09T11:29:06;6.15;;;2.65;;
78854;SDS011;68206;59.956;30.234;2023-10-09T11:31:57;6.60;;;2.53;;
78854;SDS011;68206;59.956;30.234;2023-10-09T11:34:28;2.83;;;2.05;;
78854;SDS011;68206;59.956;30.234;2023-10-09T11:36:59;3.58;;;1.95;;
78854;SDS011;68206;59.956;30.234;2023-10-09T11:39:29;2.78;;;1.92;;
78854;SDS011;68206;59.956;30.234;2023-10-09T11:42:21;2.25;;;1.77;;
78854;SDS011;68206;59.956;30.234;2023-10-09T11:45:04;3.47;;;2.00;;
78854;SDS011;68206;59.956;30.234;2023-10-09T11:47:47;3.70;;;2.10;;
78854;SDS011;68206;59.956;30.234;2023-10-09T11:53:10;4.80;;;2.40;;
78854;SDS011;68206;59.956;30.234;2023-10-09T11:56:01;3.20;;;1.60;;
78854;SDS011;68206;59.956;30.234;2023-10-09T11:58:30;4.43;;;1.88;;
78854;SDS011;68206;59.956;30.234;2023-10-09T12:00:59;3.25;;;2.00;;
78854;SDS011;68206;59.956;30.234;2023-10-09T12:03:31;4.15;;;2.05;;
78854;SDS011;68206;59.956;30.234;2023-10-09T12:06:01;2.55;;;1.90;;
78854;SDS011;68206;59.956;30.234;2023-10-09T12:08:33;3.70;;;2.15;;
78854;SDS011;68206;59.956;30.234;2023-10-09T12:11:02;2.97;;;1.80;;
78854;SDS011;68206;59.956;30.234;2023-10-09T12:13:37;3.22;;;1.85;;
78854;SDS011;68206;59.956;30.234;2023-10-09T12:16:06;3.05;;;1.95;;
78854;SDS011;68206;59.956;30.234;2023-10-09T12:18:37;3.08;;;2.13;;
78854;SDS011;68206;59.956;30.234;2023-10-09T12:21:06;4.47;;;1.92;;
78854;SDS011;68206;59.956;30.234;2023-10-09T12:23:35;2.97;;;1.90;;
78854;SDS011;68206;59.956;30.234;2023-10-09T12:26:03;3.25;;;2.22;;
78854;SDS011;68206;59.956;30.234;2023-10-09T12:28:41;3.10;;;2.10;;
78854;SDS011;68206;59.956;30.234;2023-10-09T12:31:13;2.97;;;2.10;;
78854;SDS011;68206;59.956;30.234;2023-10-09T12:33:42;5.93;;;2.10;;
78854;SDS011;68206;59.956;30.234;2023-10-09T12:36:11;3.30;;;2.20;;
78854;SDS011;68206;59.956;30.234;2023-10-09T12:38:47;2.88;;;1.98;;
78854;SDS011;68206;59.956;30.234;2023-10-09T12:41:19;3.90;;;2.28;;
78854;SDS011;68206;59.956;30.234;2023-10-09T12:43:54;3.58;;;1.90;;
78854;SDS011;68206;59.956;30.234;2023-10-09T12:46:25;2.55;;;1.83;;
78854;SDS011;68206;59.956;30.234;2023-10-09T12:48:55;9.43;;;2.33;;
78854;SDS011;68206;59.956;30.234;2023-10-09T12:51:24;8.35;;;2.47;;
78854;SDS011;68206;59.956;30.234;2023-10-09T12:56:30;2.28;;;1.60;;
78854;SDS011;68206;59.956;30.234;2023-10-09T12:59:06;3.47;;;2.20;;
78854;SDS011;68206;59.956;30.234;2023-10-09T13:01:42;3.70;;;1.83;;
78854;SDS011;68206;59.956;30.234;2023-10-09T13:04:10;2.97;;;2.10;;
78854;SDS011;68206;59.956;30.234;2023-10-09T13:06:42;5.43;;;2.25;;
78854;SDS011;68206;59.956;30.234;2023-10-09T13:09:12;3.40;;;2.00;;
78854;SDS011;68206;59.956;30.234;2023-10-09T13:11:41;3.75;;;2.05;;
78854;SDS011;68206;59.956;30.234;2023-10-09T13:14:12;3.20;;;2.10;;
78854;SDS011;68206;59.956;30.234;2023-10-09T13:16:44;4.40;;;2.47;;
78854;SDS011;68206;59.956;30.234;2023-10-09T13:19:14;6.82;;;2.80;;
78854;SDS011;68206;59.956;30.234;2023-10-09T13:21:42;3.30;;;2.20;;
78854;SDS011;68206;59.956;30.234;2023-10-09T13:24:11;3.10;;;1.98;;
78854;SDS011;68206;59.956;30.234;2023-10-09T13:26:43;4.15;;;2.15;;
78854;SDS011;68206;59.956;30.234;2023-10-09T13:29:15;2.72;;;2.13;;
78854;SDS011;68206;59.956;30.234;2023-10-09T13:31:49;2.75;;;2.00;;
78854;SDS011;68206;59.956;30.234;2023-10-09T13:34:25;4.10;;;2.20;;
78854;SDS011;68206;59.956;30.234;2023-10-09T13:36:56;4.07;;;2.15;;
78854;SDS011;68206;59.956;30.234;2023-10-09T13:39:26;2.83;;;1.67;;
78854;SDS011;68206;59.956;30.234;2023-10-09T13:41:56;2.90;;;1.80;;
78854;SDS011;68206;59.956;30.234;2023-10-09T13:44:30;3.33;;;2.15;;
78854;SDS011;68206;59.956;30.234;2023-10-09T13:47:01;3.25;;;2.10;;
78854;SDS011;68206;59.956;30.234;2023-10-09T13:49:33;3.63;;;2.38;;
78854;SDS011;68206;59.956;30.234;2023-10-09T13:52:09;2.20;;;1.63;;
78854;SDS011;68206;59.956;30.234;2023-10-09T13:54:45;3.90;;;2.50;;
78854;SDS011;68206;59.956;30.234;2023-10-09T13:57:16;3.95;;;2.00;;
78854;SDS011;68206;59.956;30.234;2023-10-09T13:59:50;3.33;;;2.20;;
78854;SDS011;68206;59.956;30.234;2023-10-09T14:02:19;2.55;;;1.85;;
78854;SDS011;68206;59.956;30.234;2023-10-09T14:04:48;2.95;;;1.90;;
78854;SDS011;68206;59.956;30.234;2023-10-09T14:07:18;3.05;;;1.90;;
78854;SDS011;68206;59.956;30.234;2023-10-09T14:09:47;3.58;;;1.90;;
78854;SDS011;68206;59.956;30.234;2023-10-09T14:12:35;2.95;;;1.83;;
78854;SDS011;68206;59.956;30.234;2023-10-09T14:15:09;3.15;;;1.80;;
78854;SDS011;68206;59.956;30.234;2023-10-09T14:17:44;3.00;;;1.83;;
78854;SDS011;68206;59.956;30.234;2023-10-09T14:20:13;3.05;;;1.75;;
78854;SDS011;68206;59.956;30.234;2023-10-09T14:22:58;3.35;;;1.75;;
78854;SDS011;68206;59.956;30.234;2023-10-09T14:25:34;3.25;;;1.95;;
78854;SDS011;68206;59.956;30.234;2023-10-09T14:28:04;4.10;;;1.85;;
78854;SDS011;68206;59.956;30.234;2023-10-09T14:30:36;2.38;;;1.83;;
78854;SDS011;68206;59.956;30.234;2023-10-09T14:33:10;2.55;;;1.88;;
78854;SDS011;68206;59.956;30.234;2023-10-09T14:35:40;2.97;;;1.73;;
78854;SDS011;68206;59.956;30.234;2023-10-09T14:38:10;2.97;;;2.05;;
78854;SDS011;68206;59.956;30.234;2023-10-09T14:40:42;10.23;;;2.88;;
78854;SDS011;68206;59.956;30.234;2023-10-09T14:43:14;3.10;;;2.20;;
78854;SDS011;68206;59.956;30.234;2023-10-09T14:45:56;4.18;;;2.33;;
78854;SDS011;68206;59.956;30.234;2023-10-09T14:48:24;6.05;;;1.92;;
78854;SDS011;68206;59.956;30.234;2023-10-09T14:50:53;2.90;;;2.05;;
78854;SDS011;68206;59.956;30.234;2023-10-09T14:53:31;4.70;;;2.25;;
78854;SDS011;68206;59.956;30.234;2023-10-09T14:56:01;3.83;;;2.25;;
78854;SDS011;68206;59.956;30.234;2023-10-09T14:58:30;4.47;;;2.25;;
78854;SDS011;68206;59.956;30.234;2023-10-09T15:01:09;3.53;;;2.25;;
78854;SDS011;68206;59.956;30.234;2023-10-09T15:03:40;3.25;;;2.25;;
78854;SDS011;68206;59.956;30.234;2023-10-09T15:06:09;3.78;;;2.42;;
78854;SDS011;68206;59.956;30.234;2023-10-09T15:08:38;3.63;;;2.10;;
78854;SDS011;68206;59.956;30.234;2023-10-09T15:11:07;3.25;;;1.90;;
78854;SDS011;68206;59.956;30.234;2023-10-09T15:13:35;3.55;;;1.80;;
78854;SDS011;68206;59.956;30.234;2023-10-09T15:16:06;3.42;;;2.20;;
78854;SDS011;68206;59.956;30.234;2023-10-09T15:18:39;6.30;;;2.20;;
78854;SDS011;68206;59.956;30.234;2023-10-09T15:21:07;2.88;;;2.08;;
78854;SDS011;68206;59.956;30.234;2023-10-09T15:23:36;2.67;;;1.85;;
78854;SDS011;68206;59.956;30.234;2023-10-09T15:26:05;2.90;;;2.00;;
78854;SDS011;68206;59.956;30.234;2023-10-09T15:28:34;3.75;;;2.20;;
78854;SDS011;68206;59.956;30.234;2023-10-09T15:31:06;3.55;;;2.00;;
78854;SDS011;68206;59.956;30.234;2023-10-09T15:33:40;3.03;;;1.90;;
78854;SDS011;68206;59.956;30.234;2023-10-09T15:36:10;3.05;;;2.03;;
78854;SDS011;68206;59.956;30.234;2023-10-09T15:38:40;3.28;;;2.08;;
78854;SDS011;68206;59.956;30.234;2023-10-09T15:41:08;2.97;;;1.80;;
78854;SDS011;68206;59.956;30.234;2023-10-09T15:43:38;2.30;;;1.80;;
78854;SDS011;68206;59.956;30.234;2023-10-09T15:46:10;3.50;;;1.90;;
78854;SDS011;68206;59.956;30.234;2023-10-09T15:48:43;3.85;;;2.10;;
78854;SDS011;68206;59.956;30.234;2023-10-09T15:51:15;4.53;;;1.65;;
78854;SDS011;68206;59.956;30.234;2023-10-09T15:53:44;3.22;;;1.88;;
78854;SDS011;68206;59.956;30.234;2023-10-09T15:56:13;3.45;;;2.00;;